Time;durP1;ratioP1;P1;durP2;ratioP2;P2;SDS_P1;SDS_P2;PMS_P1;PMS_P2;Temp;Humidity;BMP_temperature;BMP_pressure;BME280_temperature;BME280_humidity;BME280_pressure;Samples;Min_cycle;Max_cycle;Signal;HPM_P1;HPM_P2
2022/04/16 00:01:35;;;;;;;3.13;2.93;;;2.90;99.90;;;;;;5265434;28;20474;-53
2022/04/16 00:04:08;;;;;;;7.43;2.50;;;2.90;99.90;;;;;;5269409;28;20833;-52
2022/04/16 00:06:38;;;;;;;1.90;1.80;;;2.90;99.90;;;;;;5268420;28;20174;-54
2022/04/16 00:09:09;;;;;;;7.10;2.77;;;2.90;99.90;;;;;;5255645;28;20450;-53
2022/04/16 00:11:40;;;;;;;12.13;2.27;;;2.80;99.90;;;;;;5264400;28;20202;-53
2022/04/16 00:14:10;;;;;;;2.40;2.27;;;2.80;99.90;;;;;;5261495;28;20293;-53
2022/04/16 00:16:42;;;;;;;2.83;1.83;;;2.70;99.90;;;;;;5255839;28;20189;-52
2022/04/16 00:19:12;;;;;;;6.43;2.53;;;2.70;99.90;;;;;;5266833;28;20726;-53
2022/04/16 00:21:43;;;;;;;5.20;2.10;;;2.60;99.90;;;;;;5264099;28;20534;-53
2022/04/16 00:24:14;;;;;;;3.97;1.60;;;2.60;99.90;;;;;;5266506;28;20186;-53
2022/04/16 00:26:46;;;;;;;1.87;1.70;;;2.50;99.90;;;;;;5255567;28;20174;-52
2022/04/16 00:29:16;;;;;;;8.47;1.70;;;2.60;99.90;;;;;;5266243;28;20951;-52
2022/04/16 00:31:47;;;;;;;5.40;1.83;;;2.50;99.90;;;;;;5263968;28;20467;-53
2022/04/16 00:34:18;;;;;;;1.80;1.60;;;2.50;99.90;;;;;;5267121;28;20213;-53
2022/04/16 00:36:49;;;;;;;10.30;2.13;;;2.50;99.90;;;;;;5265286;28;20204;-53
2022/04/16 00:39:19;;;;;;;1.90;1.80;;;2.60;99.90;;;;;;5262322;28;20424;-53
2022/04/16 00:41:50;;;;;;;3.40;2.00;;;2.50;99.90;;;;;;5260814;28;20233;-52
2022/04/16 00:44:21;;;;;;;5.30;1.77;;;2.60;99.90;;;;;;5254411;28;20186;-53
2022/04/16 00:46:51;;;;;;;3.20;1.20;;;2.60;99.90;;;;;;5265749;28;20178;-53
2022/04/16 00:49:23;;;;;;;8.13;1.50;;;2.50;99.90;;;;;;5268847;28;20205;-54
2022/04/16 00:51:53;;;;;;;1.57;1.47;;;2.40;99.90;;;;;;5267271;28;20459;-53
2022/04/16 00:54:24;;;;;;;3.53;1.20;;;2.40;99.90;;;;;;5266342;28;20455;-53
2022/04/16 00:56:55;;;;;;;4.17;1.67;;;2.40;99.90;;;;;;5261168;28;20186;-52
2022/04/16 00:59:26;;;;;;;1.60;1.57;;;2.40;99.90;;;;;;5257698;28;20435;-53
2022/04/16 01:01:59;;;;;;;3.03;1.47;;;2.40;99.90;;;;;;5264739;28;20197;-54
2022/04/16 01:04:30;;;;;;;8.73;1.37;;;2.40;99.90;;;;;;5254278;28;20235;-52
2022/04/16 01:07:00;;;;;;;2.20;1.90;;;2.40;99.90;;;;;;5264028;28;20416;-52
2022/04/16 01:09:32;;;;;;;12.17;1.60;;;2.30;99.90;;;;;;5264990;28;20178;-54
2022/04/16 01:12:03;;;;;;;4.33;1.57;;;2.30;99.90;;;;;;5264297;28;20200;-54
2022/04/16 01:14:33;;;;;;;3.57;2.10;;;2.30;99.90;;;;;;5266608;28;20455;-53
2022/04/16 01:17:04;;;;;;;1.83;1.43;;;2.20;99.90;;;;;;5259585;28;20174;-53
2022/04/16 01:19:37;;;;;;;3.47;1.90;;;2.30;99.90;;;;;;5257593;28;20176;-52
2022/04/16 01:22:14;;;;;;;3.50;1.60;;;2.20;99.90;;;;;;5268665;28;20458;-53
2022/04/16 01:24:48;;;;;;;1.83;1.73;;;2.20;99.90;;;;;;5264446;28;20438;-54
2022/04/16 01:27:19;;;;;;;21.17;2.03;;;2.20;99.90;;;;;;5262572;28;20462;-52
2022/04/16 01:29:50;;;;;;;3.97;1.80;;;2.20;99.90;;;;;;5259709;28;20443;-53
2022/04/16 01:32:23;;;;;;;3.50;1.37;;;2.10;99.90;;;;;;5258436;28;20463;-53
2022/04/16 01:34:53;;;;;;;1.80;1.63;;;2.10;99.90;;;;;;5263291;28;20213;-53
2022/04/16 01:37:24;;;;;;;2.70;1.40;;;2.10;99.90;;;;;;5265512;28;20431;-53
2022/04/16 01:39:56;;;;;;;8.77;2.50;;;2.10;99.90;;;;;;5249336;28;20170;-53
2022/04/16 01:42:32;;;;;;;1.83;1.73;;;2.10;99.90;;;;;;5263544;28;20209;-53
2022/04/16 01:45:04;;;;;;;2.20;2.00;;;2.10;99.90;;;;;;5266367;28;20431;-52
2022/04/16 01:47:36;;;;;;;2.20;1.53;;;2.10;99.90;;;;;;5275899;28;20443;-52
2022/04/16 01:50:08;;;;;;;1.70;1.50;;;2.00;99.90;;;;;;5263801;28;20436;-53
2022/04/16 01:52:41;;;;;;;2.60;1.23;;;2.10;99.90;;;;;;5263469;28;20774;-53
2022/04/16 01:55:15;;;;;;;2.30;1.50;;;2.00;99.90;;;;;;5265486;28;20447;-53
2022/04/16 01:57:45;;;;;;;3.33;2.00;;;2.00;99.90;;;;;;5265884;28;20833;-52
2022/04/16 02:00:16;;;;;;;4.03;1.57;;;2.00;99.90;;;;;;5265037;28;20439;-54
2022/04/16 02:02:47;;;;;;;2.47;1.57;;;2.10;99.90;;;;;;5264420;28;20205;-53
2022/04/16 02:05:17;;;;;;;4.77;1.90;;;2.10;99.90;;;;;;5261673;28;20464;-53
2022/04/16 02:07:50;;;;;;;7.07;2.40;;;2.10;99.90;;;;;;5265268;28;20182;-54
2022/04/16 02:10:21;;;;;;;4.17;1.47;;;2.10;99.90;;;;;;5266281;28;20293;-53
2022/04/16 02:12:51;;;;;;;5.70;2.30;;;2.20;99.90;;;;;;5263374;28;20955;-54
2022/04/16 02:15:22;;;;;;;4.00;1.93;;;2.10;99.90;;;;;;5265027;28;20333;-52
2022/04/16 02:17:53;;;;;;;1.43;1.33;;;2.10;99.90;;;;;;5264643;28;20661;-53
2022/04/16 02:20:24;;;;;;;2.63;1.50;;;2.00;99.90;;;;;;5266517;28;20229;-53
2022/04/16 02:22:55;;;;;;;2.43;1.50;;;2.00;99.90;;;;;;5268017;28;20459;-54
2022/04/16 02:25:25;;;;;;;3.07;1.90;;;2.00;99.90;;;;;;5264671;28;20178;-53
2022/04/16 02:27:56;;;;;;;2.73;1.70;;;1.90;99.90;;;;;;5267951;28;20235;-53
2022/04/16 02:30:30;;;;;;;2.50;1.30;;;2.00;99.90;;;;;;5260538;28;20216;-54
2022/04/16 02:33:02;;;;;;;4.50;1.50;;;1.90;99.90;;;;;;5267739;28;20216;-54
2022/04/16 02:35:33;;;;;;;7.67;1.73;;;2.00;99.90;;;;;;5268866;28;20958;-53
2022/04/16 02:38:03;;;;;;;1.67;1.40;;;2.00;99.90;;;;;;5268626;28;20423;-53
2022/04/16 02:40:34;;;;;;;4.07;2.10;;;1.90;99.90;;;;;;5267302;28;20460;-52
2022/04/16 02:43:05;;;;;;;3.33;1.90;;;2.00;99.90;;;;;;5263135;28;20187;-52
2022/04/16 02:48:25;;;;;;;2.20;1.47;;;1.90;99.90;;;;;;5262776;28;20260;-52
2022/04/16 02:50:55;;;;;;;1.70;1.60;;;1.90;99.90;;;;;;5267281;28;20440;-52
2022/04/16 02:53:26;;;;;;;2.50;1.63;;;1.90;99.90;;;;;;5265323;28;20459;-52
2022/04/16 02:55:57;;;;;;;3.90;2.00;;;1.80;99.90;;;;;;5262594;28;20189;-53
2022/04/16 02:58:28;;;;;;;2.20;1.40;;;1.80;99.90;;;;;;5265806;28;20774;-53
2022/04/16 03:00:58;;;;;;;2.93;1.40;;;1.90;99.90;;;;;;5264599;28;20202;-53
2022/04/16 03:03:29;;;;;;;3.50;1.50;;;2.00;99.90;;;;;;5257131;28;20654;-53
2022/04/16 03:06:00;;;;;;;2.97;1.67;;;2.10;99.90;;;;;;5262758;28;20179;-52
2022/04/16 03:08:30;;;;;;;3.20;1.63;;;2.10;99.90;;;;;;5261831;28;21005;-53
2022/04/16 03:11:04;;;;;;;3.10;1.53;;;2.20;99.90;;;;;;5266222;28;20231;-52
2022/04/16 03:13:34;;;;;;;2.23;2.03;;;2.10;99.90;;;;;;5270408;28;20202;-51
2022/04/16 03:18:54;;;;;;;1.30;1.20;;;2.10;99.90;;;;;;5267542;28;20173;-52
2022/04/16 03:21:25;;;;;;;6.50;2.13;;;2.10;99.90;;;;;;5264737;28;20455;-52
2022/04/16 03:23:56;;;;;;;4.80;1.70;;;2.10;99.90;;;;;;5266316;28;20431;-53
2022/04/16 03:26:26;;;;;;;3.87;1.90;;;2.10;99.90;;;;;;5265383;28;20193;-54
2022/04/16 03:28:57;;;;;;;4.20;1.67;;;2.10;99.90;;;;;;5269313;28;20626;-51
2022/04/16 03:31:27;;;;;;;2.70;2.00;;;2.10;99.90;;;;;;5254615;28;20561;-54
2022/04/16 03:33:58;;;;;;;3.53;1.40;;;2.20;99.90;;;;;;5256826;28;20205;-52
2022/04/16 03:36:30;;;;;;;1.87;1.77;;;2.20;99.90;;;;;;5250765;28;20175;-53
2022/04/16 03:39:00;;;;;;;8.43;1.30;;;2.20;99.90;;;;;;5264775;28;20774;-53
2022/04/16 03:41:31;;;;;;;6.27;2.23;;;2.20;99.90;;;;;;5265029;28;20468;-54
2022/04/16 03:44:03;;;;;;;2.13;1.90;;;2.30;99.90;;;;;;5265760;28;20561;-53
2022/04/16 03:46:34;;;;;;;2.80;1.70;;;2.20;99.90;;;;;;5266057;28;20182;-53
2022/04/16 03:49:04;;;;;;;3.50;1.43;;;2.30;99.90;;;;;;5261051;28;20435;-52
2022/04/16 03:51:35;;;;;;;6.53;2.07;;;2.30;99.90;;;;;;5260430;28;20696;-52
2022/04/16 03:59:59;;;;;;;2.00;1.80;;;2.40;99.90;;;;;;5265398;28;20445;-52
2022/04/16 04:02:33;;;;;;;1.70;1.60;;;2.30;99.90;;;;;;5268289;28;20486;-52
2022/04/16 04:05:05;;;;;;;10.83;1.90;;;2.40;99.90;;;;;;5260873;28;20423;-52
2022/04/16 04:07:36;;;;;;;2.27;1.60;;;2.40;99.90;;;;;;5266735;28;20447;-53
2022/04/16 04:10:07;;;;;;;13.00;2.00;;;2.40;99.90;;;;;;5268551;28;20440;-52
2022/04/16 04:12:37;;;;;;;2.33;1.73;;;2.40;99.90;;;;;;5268603;28;20177;-52
2022/04/16 04:15:09;;;;;;;1.57;1.47;;;2.40;99.90;;;;;;5266319;28;20954;-52
2022/04/16 04:17:39;;;;;;;1.57;1.47;;;2.40;99.90;;;;;;5265920;28;20174;-52
2022/04/16 04:20:10;;;;;;;5.60;1.77;;;2.40;99.90;;;;;;5254501;28;20421;-52
2022/04/16 04:22:41;;;;;;;6.80;2.27;;;2.40;99.90;;;;;;5249793;28;20174;-53
2022/04/16 04:25:11;;;;;;;1.30;1.27;;;2.40;99.90;;;;;;5250276;28;20181;-53
2022/04/16 04:27:42;;;;;;;3.40;1.37;;;2.50;99.90;;;;;;5258684;28;20186;-53
2022/04/16 04:30:14;;;;;;;4.73;1.77;;;2.50;99.90;;;;;;5267462;28;20285;-52
2022/04/16 04:32:45;;;;;;;8.80;2.10;;;2.60;99.90;;;;;;5265757;28;20189;-52
2022/04/16 04:35:15;;;;;;;1.40;1.30;;;2.60;99.90;;;;;;5269086;28;20963;-53
2022/04/16 04:37:46;;;;;;;5.70;1.77;;;2.70;99.90;;;;;;5259862;28;20166;-52
2022/04/16 04:40:18;;;;;;;4.27;1.67;;;2.70;99.90;;;;;;5262141;28;20170;-52
2022/04/16 04:42:49;;;;;;;2.70;1.97;;;2.80;99.90;;;;;;5268985;28;20529;-53
2022/04/16 04:45:19;;;;;;;2.20;1.57;;;2.80;99.90;;;;;;5259927;28;20432;-52
2022/04/16 04:47:50;;;;;;;2.70;1.53;;;2.80;99.90;;;;;;5259462;28;20489;-53
2022/04/16 04:50:21;;;;;;;8.97;1.63;;;2.90;99.90;;;;;;5248743;28;20206;-52
2022/04/16 04:52:51;;;;;;;2.97;1.70;;;2.90;99.90;;;;;;5258647;28;20576;-52
2022/04/16 04:55:22;;;;;;;3.53;1.67;;;3.00;99.90;;;;;;5261966;28;20644;-54
2022/04/16 04:57:54;;;;;;;2.93;1.90;;;3.00;99.90;;;;;;5269334;28;20181;-53
2022/04/16 05:00:25;;;;;;;9.47;2.10;;;3.10;99.90;;;;;;5262869;28;20205;-53
2022/04/16 05:02:56;;;;;;;2.30;1.30;;;3.20;99.90;;;;;;5252175;28;20975;-53
2022/04/16 05:05:26;;;;;;;12.73;2.67;;;3.20;99.90;;;;;;5265179;28;20177;-52
2022/04/16 05:07:57;;;;;;;4.00;1.90;;;3.30;99.90;;;;;;5263827;28;20939;-52
2022/04/16 05:10:28;;;;;;;3.20;1.50;;;3.40;99.90;;;;;;5256431;28;20574;-53
2022/04/16 05:12:58;;;;;;;1.80;1.70;;;3.50;99.90;;;;;;5266219;28;20177;-53
2022/04/16 05:15:29;;;;;;;1.83;1.60;;;3.60;99.90;;;;;;5268246;28;20213;-53
2022/04/16 05:18:00;;;;;;;3.40;2.57;;;3.70;99.90;;;;;;5262183;28;20635;-53
2022/04/16 05:20:30;;;;;;;2.63;2.00;;;3.80;99.90;;;;;;5265613;28;20271;-52
2022/04/16 05:23:01;;;;;;;1.23;1.13;;;3.90;99.90;;;;;;5264286;28;20173;-54
2022/04/16 05:25:31;;;;;;;1.33;1.17;;;4.10;99.90;;;;;;5266887;28;20186;-54
2022/04/16 05:28:02;;;;;;;1.70;1.60;;;4.10;99.90;;;;;;5259428;28;20672;-52
2022/04/16 05:30:44;;;;;;;3.70;1.50;;;4.10;99.90;;;;;;5260144;28;20202;-53
2022/04/16 05:36:09;;;;;;;10.70;1.57;;;4.10;99.90;;;;;;5229642;28;20437;-53
2022/04/16 05:38:40;;;;;;;13.13;1.77;;;4.10;99.90;;;;;;5263062;28;20445;-53
2022/04/16 05:41:11;;;;;;;2.77;1.93;;;4.20;99.90;;;;;;5245902;28;20213;-53
2022/04/16 05:43:41;;;;;;;4.77;1.73;;;4.30;99.90;;;;;;5261672;28;20201;-53
2022/04/16 05:46:12;;;;;;;2.30;1.67;;;4.40;99.90;;;;;;5258668;28;21106;-54
2022/04/16 05:48:42;;;;;;;3.90;1.90;;;4.40;99.90;;;;;;5262398;28;20189;-53
2022/04/16 05:51:14;;;;;;;5.87;2.37;;;4.50;99.90;;;;;;5246287;28;20681;-53
2022/04/16 05:53:48;;;;;;;2.63;1.50;;;4.50;99.90;;;;;;5254282;28;20218;-54
2022/04/16 05:56:19;;;;;;;2.93;1.60;;;4.40;99.90;;;;;;5265812;28;20419;-52
2022/04/16 05:58:50;;;;;;;3.63;1.73;;;4.50;99.90;;;;;;5268109;28;20425;-52
2022/04/16 06:01:20;;;;;;;3.30;1.60;;;4.60;99.90;;;;;;5267546;28;20467;-52
2022/04/16 06:03:51;;;;;;;2.20;1.60;;;4.70;99.90;;;;;;5263486;28;20555;-52
2022/04/16 06:06:21;;;;;;;4.93;2.07;;;4.80;99.90;;;;;;5265277;28;20193;-54
2022/04/16 06:08:52;;;;;;;3.03;1.70;;;4.90;99.90;;;;;;5259120;28;20192;-52
2022/04/16 06:11:25;;;;;;;10.00;2.73;;;5.10;99.90;;;;;;5260488;28;20204;-52
2022/04/16 06:13:55;;;;;;;7.30;2.30;;;5.00;99.90;;;;;;5266701;28;20206;-54
2022/04/16 06:16:26;;;;;;;3.47;2.43;;;4.90;99.90;;;;;;5266615;28;20435;-52
2022/04/16 06:18:56;;;;;;;2.37;2.17;;;4.80;99.90;;;;;;5265240;28;20196;-52
2022/04/16 06:21:27;;;;;;;4.30;2.30;;;4.80;99.90;;;;;;5259375;28;20298;-52
2022/04/16 06:23:58;;;;;;;1.97;1.80;;;4.80;99.90;;;;;;5259261;28;20186;-51
2022/04/16 06:26:28;;;;;;;2.13;1.83;;;4.90;99.90;;;;;;5268733;28;20187;-52
2022/04/16 06:28:59;;;;;;;5.87;2.27;;;5.00;99.90;;;;;;5265086;28;20268;-51
2022/04/16 06:31:30;;;;;;;2.10;2.00;;;4.90;99.90;;;;;;5261961;28;21302;-50
2022/04/16 06:34:01;;;;;;;2.80;1.43;;;4.90;99.90;;;;;;5257240;28;20268;-50
2022/04/16 06:36:31;;;;;;;7.20;2.40;;;4.90;99.90;;;;;;5265156;28;20424;-51
2022/04/16 06:39:02;;;;;;;3.30;2.10;;;4.80;99.90;;;;;;5264406;28;20186;-50
2022/04/16 06:41:32;;;;;;;4.20;2.10;;;4.80;99.90;;;;;;5259645;28;20221;-50
2022/04/16 06:44:03;;;;;;;5.43;2.10;;;4.90;99.90;;;;;;5261709;28;20178;-51
2022/04/16 06:46:34;;;;;;;2.70;2.53;;;5.20;99.90;;;;;;5264855;28;20675;-50
2022/04/16 06:49:04;;;;;;;3.03;2.00;;;5.70;99.90;;;;;;5265377;28;20248;-51
2022/04/16 06:51:35;;;;;;;3.87;3.40;;;6.00;99.90;;;;;;5261635;28;20215;-50
2022/04/16 06:54:05;;;;;;;3.60;2.87;;;6.70;99.90;;;;;;5259232;28;20216;-50
2022/04/16 06:56:36;;;;;;;3.30;3.10;;;7.50;99.90;;;;;;5259649;28;20186;-54
2022/04/16 06:59:07;;;;;;;7.43;2.90;;;7.40;99.90;;;;;;5260181;28;20186;-50
2022/04/16 07:01:38;;;;;;;4.57;3.30;;;7.40;99.90;;;;;;5259677;28;20203;-53
2022/04/16 07:04:09;;;;;;;4.90;4.50;;;7.50;99.90;;;;;;5259091;28;20550;-53
2022/04/16 07:06:41;;;;;;;5.60;4.90;;;7.30;99.90;;;;;;5257304;28;20190;-50
2022/04/16 07:09:12;;;;;;;5.33;4.33;;;7.20;99.90;;;;;;5260492;28;20184;-51
2022/04/16 07:11:42;;;;;;;12.00;5.27;;;8.20;99.90;;;;;;5266272;28;20462;-51
2022/04/16 07:14:13;;;;;;;12.90;4.20;;;10.00;99.90;;;;;;5268869;28;20262;-50
2022/04/16 07:16:43;;;;;;;4.40;3.37;;;11.70;90.70;;;;;;5265407;28;20185;-49
2022/04/16 07:19:14;;;;;;;3.50;2.70;;;12.70;62.30;;;;;;5261303;28;20205;-50
2022/04/16 07:21:45;;;;;;;2.93;2.73;;;12.60;60.80;;;;;;5261239;28;20210;-51
2022/04/16 07:24:15;;;;;;;5.23;2.13;;;13.30;57.60;;;;;;5266623;28;20227;-50
2022/04/16 07:26:47;;;;;;;8.87;1.80;;;13.60;54.40;;;;;;5269990;28;20178;-50
2022/04/16 07:29:18;;;;;;;1.40;1.40;;;13.40;53.20;;;;;;5270552;28;20575;-50
2022/04/16 07:31:49;;;;;;;2.27;1.07;;;14.00;51.90;;;;;;5265462;28;20466;-52
2022/04/16 07:34:19;;;;;;;6.83;1.30;;;14.60;50.60;;;;;;5261084;28;20202;-50
2022/04/16 07:36:50;;;;;;;1.07;1.00;;;14.80;47.20;;;;;;5262496;28;20257;-51
2022/04/16 07:39:21;;;;;;;2.70;1.47;;;14.60;47.70;;;;;;5269963;28;20188;-50
2022/04/16 07:41:52;;;;;;;1.00;1.00;;;14.70;47.50;;;;;;5269012;28;20462;-50
2022/04/16 07:44:22;;;;;;;3.40;1.73;;;15.00;45.80;;;;;;5258518;28;20641;-50
2022/04/16 07:46:53;;;;;;;0.93;0.90;;;15.10;45.30;;;;;;5267274;28;20205;-51
2022/04/16 07:49:23;;;;;;;1.27;1.10;;;15.00;45.00;;;;;;5267081;28;20185;-50
2022/04/16 07:51:54;;;;;;;2.10;1.60;;;15.50;45.70;;;;;;5269477;28;20197;-50
2022/04/16 07:54:25;;;;;;;2.20;1.17;;;16.60;43.30;;;;;;5267716;28;20210;-50
2022/04/16 07:56:55;;;;;;;1.20;1.20;;;17.00;41.40;;;;;;5266997;28;20204;-53
2022/04/16 07:59:26;;;;;;;0.87;0.87;;;17.70;40.90;;;;;;5262534;28;20182;-50
2022/04/16 08:01:56;;;;;;;1.43;1.27;;;18.20;39.70;;;;;;5269184;28;20338;-50
2022/04/16 08:04:27;;;;;;;2.60;1.40;;;19.30;37.90;;;;;;5264919;28;20186;-51
2022/04/16 08:06:58;;;;;;;2.20;1.23;;;19.00;36.20;;;;;;5268143;28;20710;-50
2022/04/16 08:09:28;;;;;;;1.40;1.40;;;18.40;37.60;;;;;;5267798;28;20214;-50
2022/04/16 08:11:59;;;;;;;1.10;1.10;;;17.40;39.00;;;;;;5257252;28;20217;-50
2022/04/16 08:14:30;;;;;;;3.77;1.20;;;17.90;39.00;;;;;;5258583;28;20734;-50
2022/04/16 08:17:00;;;;;;;1.23;1.13;;;18.90;36.60;;;;;;5263806;28;20173;-52
2022/04/16 08:19:31;;;;;;;1.20;1.07;;;19.40;35.80;;;;;;5263419;28;20242;-51
2022/04/16 08:22:07;;;;;;;1.70;1.20;;;20.50;34.30;;;;;;5268532;28;20201;-51
2022/04/16 08:27:08;;;;;;;1.33;1.23;;;18.20;33.50;;;;;;5262461;28;20459;-50
2022/04/16 08:29:38;;;;;;;0.80;0.77;;;16.40;37.90;;;;;;5259606;28;20588;-51
2022/04/16 08:32:09;;;;;;;2.17;1.00;;;15.60;40.40;;;;;;5244587;28;20193;-50
2022/04/16 08:34:40;;;;;;;1.40;1.23;;;15.70;41.10;;;;;;5263298;28;20572;-50
2022/04/16 08:37:11;;;;;;;1.33;1.03;;;14.90;41.50;;;;;;5268590;28;20174;-49
2022/04/16 08:39:41;;;;;;;5.20;1.40;;;14.00;43.30;;;;;;5259259;28;20190;-50
2022/04/16 08:42:13;;;;;;;0.63;0.63;;;13.50;44.10;;;;;;5265565;28;20769;-50
2022/04/16 08:44:44;;;;;;;1.80;0.90;;;12.80;43.30;;;;;;5268760;28;20181;-51
2022/04/16 08:47:15;;;;;;;0.83;0.83;;;11.80;43.60;;;;;;5265120;28;20496;-51
2022/04/16 08:49:46;;;;;;;2.30;1.30;;;10.70;45.10;;;;;;5257208;28;20192;-50
2022/04/16 08:52:20;;;;;;;1.80;1.07;;;10.00;46.70;;;;;;5263781;28;20980;-50
2022/04/16 08:54:51;;;;;;;1.53;0.80;;;9.60;48.80;;;;;;5266815;28;20467;-50
2022/04/16 08:57:21;;;;;;;0.67;0.67;;;9.10;49.70;;;;;;5263346;28;20929;-50
2022/04/16 08:59:53;;;;;;;0.70;0.70;;;8.90;51.00;;;;;;5267565;28;20302;-50
2022/04/16 09:02:27;;;;;;;1.33;1.07;;;8.80;51.80;;;;;;5264265;28;20300;-52
2022/04/16 09:05:07;;;;;;;1.03;0.60;;;8.80;51.40;;;;;;5263317;28;20439;-50
2022/04/16 09:07:45;;;;;;;1.90;0.73;;;8.80;51.00;;;;;;5269028;28;20435;-50
2022/04/16 09:10:17;;;;;;;1.20;1.13;;;8.70;51.10;;;;;;5262862;28;20964;-51
2022/04/16 09:12:52;;;;;;;0.73;0.70;;;8.80;51.60;;;;;;5263942;28;20489;-51
2022/04/16 09:15:24;;;;;;;0.97;0.93;;;8.80;51.20;;;;;;5248053;28;20467;-50
2022/04/16 09:18:06;;;;;;;2.50;0.93;;;8.80;51.00;;;;;;5261000;28;20776;-49
2022/04/16 09:20:38;;;;;;;1.33;1.13;;;8.80;50.40;;;;;;5267753;28;20463;-50
2022/04/16 09:23:17;;;;;;;1.03;0.80;;;8.80;49.90;;;;;;5251244;28;20427;-51
2022/04/16 09:25:51;;;;;;;0.87;0.60;;;8.90;49.80;;;;;;5261186;28;20514;-50
2022/04/16 09:28:22;;;;;;;0.60;0.60;;;9.00;50.30;;;;;;5260727;28;20960;-50
2022/04/16 09:30:55;;;;;;;1.33;0.90;;;8.90;50.20;;;;;;5268364;28;20498;-50
2022/04/16 09:33:37;;;;;;;0.80;0.80;;;8.80;50.00;;;;;;5262498;28;20183;-50
2022/04/16 09:36:08;;;;;;;1.47;0.80;;;9.00;48.90;;;;;;5265263;28;20507;-50
2022/04/16 09:38:38;;;;;;;0.90;0.90;;;9.10;48.00;;;;;;5264064;28;20535;-50
2022/04/16 09:41:13;;;;;;;1.03;1.03;;;9.10;47.80;;;;;;5259497;28;20255;-51
2022/04/16 09:43:44;;;;;;;1.10;1.00;;;9.20;48.90;;;;;;5254446;28;20189;-50
2022/04/16 09:46:14;;;;;;;0.97;0.90;;;9.30;49.00;;;;;;5258677;28;20459;-50
2022/04/16 09:48:45;;;;;;;1.10;1.00;;;9.20;48.40;;;;;;5264251;28;20189;-50
2022/04/16 09:51:23;;;;;;;1.53;0.80;;;9.20;48.10;;;;;;5266930;28;20258;-50
2022/04/16 09:53:55;;;;;;;1.23;1.13;;;9.20;48.40;;;;;;5249634;28;20477;-52
2022/04/16 09:56:28;;;;;;;1.00;1.00;;;9.20;48.10;;;;;;5242508;28;20444;-50
2022/04/16 09:59:02;;;;;;;0.67;0.67;;;9.20;49.60;;;;;;5259488;28;20486;-51
2022/04/16 10:01:33;;;;;;;0.60;0.60;;;9.20;50.40;;;;;;5255380;28;20926;-51
2022/04/16 10:04:06;;;;;;;0.90;0.90;;;9.30;50.60;;;;;;5258263;28;20457;-52
2022/04/16 10:06:37;;;;;;;0.90;0.90;;;9.30;49.50;;;;;;5262495;28;20519;-50
2022/04/16 10:09:17;;;;;;;1.17;0.93;;;9.50;49.10;;;;;;5265169;28;20432;-50
2022/04/16 10:14:46;;;;;;;2.97;0.80;;;9.90;49.40;;;;;;5261826;28;20477;-50
2022/04/16 10:17:39;;;;;;;1.27;1.17;;;9.80;46.70;;;;;;5256293;28;20518;-50
2022/04/16 10:20:11;;;;;;;1.43;1.33;;;9.80;46.20;;;;;;5256993;28;20443;-50
2022/04/16 10:22:55;;;;;;;2.13;1.27;;;9.80;46.40;;;;;;5250824;28;24567;-49
2022/04/16 10:25:34;;;;;;;4.93;1.10;;;9.80;46.70;;;;;;5257377;28;20448;-52
2022/04/16 10:28:07;;;;;;;0.60;0.60;;;9.90;47.40;;;;;;5256293;28;21403;-50
2022/04/16 10:30:54;;;;;;;0.50;0.50;;;9.80;46.80;;;;;;5250206;28;20455;-50
2022/04/16 10:33:27;;;;;;;8.13;1.23;;;9.80;47.40;;;;;;5258699;28;20891;-53
2022/04/16 10:36:10;;;;;;;0.90;0.90;;;9.80;47.20;;;;;;5254598;28;20423;-52
2022/04/16 10:38:41;;;;;;;2.20;1.20;;;10.00;45.50;;;;;;5260480;28;20538;-50
2022/04/16 10:41:14;;;;;;;1.27;0.50;;;10.20;44.20;;;;;;5263250;28;20571;-50
2022/04/16 10:44:00;;;;;;;0.80;0.80;;;10.40;44.20;;;;;;5257931;28;20487;-51
2022/04/16 10:46:46;;;;;;;0.70;0.70;;;10.50;43.50;;;;;;5263598;28;20432;-51
2022/04/16 10:49:19;;;;;;;1.77;1.00;;;10.60;41.00;;;;;;5259663;28;20432;-50
2022/04/16 10:51:52;;;;;;;0.70;0.70;;;10.60;41.70;;;;;;5267641;28;20448;-50
2022/04/16 10:54:28;;;;;;;1.33;0.87;;;10.60;41.80;;;;;;5265093;28;20451;-51
2022/04/16 10:56:59;;;;;;;2.77;0.67;;;10.40;43.10;;;;;;5251015;28;20426;-50
2022/04/16 10:59:41;;;;;;;2.47;0.70;;;10.30;43.80;;;;;;5255528;28;20498;-50
2022/04/16 11:02:21;;;;;;;2.50;0.93;;;10.40;43.60;;;;;;5247960;28;20455;-51
2022/04/16 11:05:02;;;;;;;1.70;0.63;;;10.50;42.20;;;;;;5262646;28;20439;-51
2022/04/16 11:07:35;;;;;;;1.90;1.03;;;10.60;42.80;;;;;;5263287;28;20470;-50
2022/04/16 11:10:10;;;;;;;0.90;0.80;;;10.60;43.20;;;;;;5268445;28;20435;-50
2022/04/16 11:12:41;;;;;;;0.83;0.73;;;10.60;43.30;;;;;;5269012;28;20455;-50
2022/04/16 11:15:18;;;;;;;6.17;0.93;;;10.60;43.70;;;;;;5265862;28;20459;-52
2022/04/16 11:17:56;;;;;;;0.60;0.60;;;10.60;43.10;;;;;;5267517;28;20522;-50
2022/04/16 11:20:28;;;;;;;0.43;0.43;;;10.60;42.70;;;;;;5264103;28;20459;-51
2022/04/16 11:22:58;;;;;;;0.63;0.63;;;10.70;41.60;;;;;;5262770;28;20428;-51
2022/04/16 11:34:14;;;;;;;1.67;0.70;;;10.60;41.40;;;;;;5262631;28;20953;-51
2022/04/16 11:34:20;;;;;;;0.63;0.57;;;10.70;43.70;;;;;;5254099;28;20801;-51
2022/04/16 11:36:50;;;;;;;1.17;0.93;;;10.70;43.60;;;;;;5262245;28;20432;-51
2022/04/16 11:39:23;;;;;;;1.50;0.93;;;10.70;43.90;;;;;;5267028;28;20472;-50
2022/04/16 11:41:59;;;;;;;0.83;0.83;;;10.90;43.70;;;;;;5273929;28;20293;-51
2022/04/16 11:44:45;;;;;;;3.07;0.60;;;11.20;43.50;;;;;;5255929;28;20458;-51
2022/04/16 11:47:27;;;;;;;0.83;0.70;;;11.30;43.50;;;;;;5256305;28;20435;-51
2022/04/16 11:50:02;;;;;;;0.73;0.60;;;11.10;43.50;;;;;;5256360;28;20526;-53
2022/04/16 11:52:34;;;;;;;1.30;0.67;;;11.20;44.20;;;;;;5259283;28;20666;-51
2022/04/16 11:55:16;;;;;;;0.47;0.47;;;11.20;44.30;;;;;;5254808;28;20587;-52
2022/04/16 11:57:49;;;;;;;0.73;0.73;;;11.40;44.00;;;;;;5252116;28;20437;-53
2022/04/16 12:00:21;;;;;;;1.10;0.80;;;11.50;44.40;;;;;;5255703;28;20441;-52
2022/04/16 12:02:56;;;;;;;0.73;0.70;;;11.60;42.30;;;;;;5249673;28;20431;-51
2022/04/16 12:05:28;;;;;;;0.80;0.67;;;11.60;39.30;;;;;;5247781;28;20852;-52
2022/04/16 12:07:59;;;;;;;35.97;0.70;;;11.60;38.60;;;;;;5238557;28;20664;-52
2022/04/16 12:10:29;;;;;;;1.60;0.50;;;11.60;38.40;;;;;;5255582;28;20467;-52
2022/04/16 12:13:09;;;;;;;3.47;0.60;;;11.70;38.90;;;;;;5251746;28;20182;-52
2022/04/16 12:15:41;;;;;;;0.50;0.50;;;11.90;38.80;;;;;;5255925;28;20205;-52
2022/04/16 12:18:22;;;;;;;1.70;0.40;;;11.90;38.50;;;;;;5253263;28;20518;-52
2022/04/16 12:20:53;;;;;;;0.60;0.60;;;11.90;38.60;;;;;;5261389;28;20452;-52
2022/04/16 12:23:25;;;;;;;0.60;0.60;;;11.80;38.80;;;;;;5253775;28;20946;-52
2022/04/16 12:26:04;;;;;;;0.53;0.50;;;12.00;39.10;;;;;;5252451;28;20939;-53
2022/04/16 12:28:37;;;;;;;0.67;0.67;;;12.20;39.00;;;;;;5258467;28;20435;-52
2022/04/16 12:31:07;;;;;;;2.20;0.43;;;12.20;37.10;;;;;;5258028;28;20501;-53
2022/04/16 12:33:38;;;;;;;1.00;0.50;;;12.20;36.00;;;;;;5257005;28;20431;-52
2022/04/16 12:36:09;;;;;;;4.00;0.67;;;12.00;34.50;;;;;;5258292;28;20174;-53
2022/04/16 12:38:39;;;;;;;0.93;0.93;;;11.90;35.60;;;;;;5260741;28;20651;-52
2022/04/16 12:41:10;;;;;;;0.73;0.73;;;12.00;35.80;;;;;;5253876;28;20213;-52
2022/04/16 12:43:41;;;;;;;0.60;0.60;;;12.10;35.60;;;;;;5255882;28;20237;-53
2022/04/16 12:46:12;;;;;;;0.67;0.67;;;12.30;35.10;;;;;;5257271;28;20528;-52
2022/04/16 12:48:42;;;;;;;5.30;1.33;;;12.40;35.30;;;;;;5258227;28;20395;-53
2022/04/16 12:51:13;;;;;;;2.80;0.53;;;12.50;35.90;;;;;;5251405;28;20209;-53
2022/04/16 12:53:43;;;;;;;2.10;0.90;;;12.60;36.00;;;;;;5258926;28;20661;-53
2022/04/16 12:56:14;;;;;;;0.63;0.63;;;12.60;35.70;;;;;;5261515;28;20213;-52
2022/04/16 12:58:44;;;;;;;1.90;0.60;;;12.60;36.20;;;;;;5258306;28;20181;-54
2022/04/16 13:01:15;;;;;;;1.07;1.03;;;12.70;34.80;;;;;;5252760;28;20206;-53
2022/04/16 13:03:46;;;;;;;0.80;0.80;;;12.80;34.60;;;;;;5258643;28;20189;-53
2022/04/16 13:06:16;;;;;;;0.70;0.70;;;12.80;34.40;;;;;;5262731;28;20539;-53
2022/04/16 13:08:47;;;;;;;1.80;0.80;;;12.90;35.20;;;;;;5255784;28;20186;-52
2022/04/16 13:11:21;;;;;;;1.13;0.73;;;12.80;33.80;;;;;;5248562;28;20209;-53
2022/04/16 13:13:51;;;;;;;1.27;0.60;;;12.80;34.30;;;;;;5252897;28;20487;-52
2022/04/16 13:16:22;;;;;;;3.23;0.83;;;12.80;33.90;;;;;;5258798;28;20471;-51
2022/04/16 13:18:52;;;;;;;0.67;0.67;;;12.80;34.10;;;;;;5256970;28;20202;-52
2022/04/16 13:21:23;;;;;;;0.90;0.90;;;12.80;34.00;;;;;;5259199;28;20206;-54
2022/04/16 13:23:54;;;;;;;1.10;1.00;;;12.80;33.30;;;;;;5256204;28;20182;-53
2022/04/16 13:26:25;;;;;;;1.17;0.50;;;12.90;33.20;;;;;;5261554;28;20211;-52
2022/04/16 13:28:55;;;;;;;3.80;0.90;;;13.00;32.90;;;;;;5257525;28;20963;-55
2022/04/16 13:31:26;;;;;;;3.33;0.80;;;13.00;32.50;;;;;;5250219;28;20209;-54
2022/04/16 13:33:56;;;;;;;1.90;0.60;;;12.90;31.80;;;;;;5251560;28;20288;-53
2022/04/16 13:36:27;;;;;;;0.50;0.50;;;12.90;32.20;;;;;;5264313;28;20525;-54
2022/04/16 13:38:58;;;;;;;3.03;0.60;;;12.90;31.50;;;;;;5265248;28;20197;-53
2022/04/16 13:44:11;;;;;;;0.50;0.50;;;13.00;31.30;;;;;;3501787;26;20246;-50
2022/04/16 13:46:42;;;;;;;5.30;0.73;;;12.90;31.10;;;;;;5201836;28;20462;-50